createdAt,value
2017-07-09T00:02:24.513Z,3.80
2017-07-09T00:04:50.898Z,3.80
2017-07-09T00:07:17.952Z,4.03
2017-07-09T00:09:44.274Z,4.13
2017-07-09T00:12:11.330Z,4.00
2017-07-09T00:14:44.565Z,4.00
2017-07-09T00:17:10.903Z,4.30
2017-07-09T00:19:38.015Z,4.13
2017-07-09T00:22:04.357Z,4.50
2017-07-09T00:24:30.685Z,4.13
2017-07-09T00:26:56.996Z,3.70
2017-07-09T00:29:23.309Z,4.43
2017-07-09T00:31:49.763Z,3.83
2017-07-09T00:34:16.072Z,4.10
2017-07-09T00:36:43.133Z,3.80
2017-07-09T00:39:09.447Z,3.80
2017-07-09T00:41:35.780Z,4.10
2017-07-09T00:44:02.172Z,4.43
2017-07-09T00:46:28.497Z,4.70
2017-07-09T00:48:54.822Z,3.97
2017-07-09T00:51:21.169Z,4.03
2017-07-09T00:53:47.485Z,4.37
2017-07-09T00:56:13.796Z,4.03
2017-07-09T00:58:40.151Z,4.33
2017-07-09T01:01:06.475Z,4.53
2017-07-09T01:03:32.804Z,5.20
2017-07-09T01:05:59.124Z,4.60
2017-07-09T01:08:25.536Z,4.67
2017-07-09T01:10:51.872Z,5.60
2017-07-09T01:13:18.212Z,4.43
2017-07-09T01:15:44.532Z,5.93
2017-07-09T01:18:11.316Z,4.93
2017-07-09T01:20:37.697Z,4.83
2017-07-09T01:23:04.014Z,4.43
2017-07-09T01:25:30.364Z,4.90
2017-07-09T01:27:56.701Z,4.83
2017-07-09T01:30:23.044Z,4.83
2017-07-09T01:32:49.377Z,4.97
2017-07-09T01:35:15.729Z,5.23
2017-07-09T01:37:42.157Z,5.30
2017-07-09T01:40:08.515Z,6.10
2017-07-09T01:42:35.155Z,4.93
2017-07-09T01:45:02.273Z,4.90
2017-07-09T01:47:28.639Z,5.37
2017-07-09T01:49:55.704Z,5.57
2017-07-09T01:52:22.024Z,5.63
2017-07-09T01:54:48.329Z,5.60
2017-07-09T01:57:14.646Z,5.50
2017-07-09T01:59:40.937Z,5.00
2017-07-09T02:02:07.474Z,4.77
2017-07-09T02:04:33.953Z,5.10
2017-07-09T02:07:02.065Z,4.60
2017-07-09T02:09:28.645Z,4.80
2017-07-09T02:11:54.931Z,4.40
2017-07-09T02:14:21.245Z,4.60
2017-07-09T02:16:47.543Z,4.07
2017-07-09T02:19:13.831Z,3.90
2017-07-09T02:21:40.108Z,4.37
2017-07-09T02:24:06.399Z,4.57
2017-07-09T02:26:32.662Z,4.60
2017-07-09T02:28:58.927Z,4.53
2017-07-09T02:31:25.198Z,4.03
2017-07-09T02:33:51.470Z,4.20
2017-07-09T02:36:18.732Z,4.60
2017-07-09T02:38:45.757Z,4.63
2017-07-09T02:41:12.035Z,5.30
2017-07-09T02:43:38.336Z,3.87
2017-07-09T02:46:05.338Z,3.70
2017-07-09T02:48:31.616Z,3.37
2017-07-09T02:50:57.923Z,3.57
2017-07-09T02:53:24.205Z,3.30
2017-07-09T02:55:50.509Z,3.50
2017-07-09T02:58:17.546Z,3.23
2017-07-09T03:00:43.849Z,3.70
2017-07-09T03:03:10.120Z,3.63
2017-07-09T03:05:36.452Z,3.77
2017-07-09T03:08:02.728Z,3.83
2017-07-09T03:10:29.032Z,4.77
2017-07-09T03:12:55.317Z,4.10
2017-07-09T03:15:22.366Z,4.50
2017-07-09T03:17:49.401Z,4.70
2017-07-09T03:20:15.679Z,4.57
2017-07-09T03:22:42.006Z,4.17
2017-07-09T03:25:08.294Z,4.50
2017-07-09T03:27:35.354Z,4.30
2017-07-09T03:30:02.386Z,4.37
2017-07-09T03:32:29.445Z,3.97
2017-07-09T03:34:55.742Z,4.63
2017-07-09T03:37:22.027Z,4.00
2017-07-09T03:39:48.323Z,4.70
2017-07-09T03:42:15.427Z,4.70
2017-07-09T03:44:41.731Z,4.17
2017-07-09T03:47:08.048Z,4.30
2017-07-09T03:49:35.083Z,4.07
2017-07-09T03:52:02.100Z,4.20
2017-07-09T03:54:28.391Z,3.90
2017-07-09T03:56:54.679Z,4.70
2017-07-09T03:59:20.991Z,4.47
2017-07-09T04:01:47.341Z,3.93
2017-07-09T04:04:14.386Z,3.80
2017-07-09T04:06:41.422Z,3.50
2017-07-09T04:09:07.735Z,3.50
2017-07-09T04:11:34.072Z,3.80
2017-07-09T04:14:00.366Z,4.30
2017-07-09T04:16:26.727Z,4.40
2017-07-09T04:18:53.036Z,4.43
2017-07-09T04:21:19.328Z,3.60
2017-07-09T04:23:46.349Z,4.60
2017-07-09T04:26:12.637Z,4.20
2017-07-09T04:28:38.962Z,4.47
2017-07-09T04:31:05.267Z,4.10
2017-07-09T04:33:32.282Z,4.87
2017-07-09T04:35:59.354Z,4.87
2017-07-09T04:38:26.407Z,4.33
2017-07-09T04:40:53.445Z,4.30
2017-07-09T04:43:19.728Z,4.50
2017-07-09T04:45:46.000Z,4.20
2017-07-09T04:48:13.043Z,4.10
2017-07-09T04:50:39.327Z,4.10
2017-07-09T04:53:05.614Z,3.80
2017-07-09T04:55:32.650Z,3.67
2017-07-09T04:57:59.714Z,4.03
2017-07-09T05:00:26.737Z,3.87
2017-07-09T05:02:53.804Z,3.63
2017-07-09T05:05:20.826Z,3.83
2017-07-09T05:07:47.150Z,3.50
2017-07-09T05:10:13.423Z,3.33
2017-07-09T05:12:40.434Z,4.10
2017-07-09T05:15:06.743Z,3.33
2017-07-09T05:17:33.022Z,3.70
2017-07-09T05:19:59.327Z,3.40
2017-07-09T05:22:25.604Z,3.30
2017-07-09T05:24:51.931Z,3.30
2017-07-09T05:27:18.207Z,3.47
2017-07-09T05:29:45.264Z,2.70
2017-07-09T05:32:12.287Z,3.63
2017-07-09T05:34:38.587Z,3.60
2017-07-09T05:37:04.914Z,3.67
2017-07-09T05:39:31.287Z,2.70
2017-07-09T05:41:57.562Z,2.80
2017-07-09T05:44:23.891Z,2.37
2017-07-09T05:46:50.207Z,3.00
2017-07-09T05:49:19.809Z,2.23
2017-07-09T05:51:46.829Z,2.70
2017-07-09T05:54:13.121Z,2.43
2017-07-09T05:56:39.419Z,2.37
2017-07-09T05:59:05.729Z,2.50
2017-07-09T06:01:32.024Z,2.83
2017-07-09T06:03:58.330Z,3.07
2017-07-09T06:06:24.612Z,3.00
2017-07-09T06:08:50.895Z,2.50
2017-07-09T06:11:17.191Z,2.60
2017-07-09T06:13:43.549Z,2.87
2017-07-09T06:16:10.888Z,2.80
2017-07-09T06:18:37.204Z,2.37
2017-07-09T06:21:04.300Z,2.50
2017-07-09T06:23:30.626Z,2.03
2017-07-09T06:25:56.924Z,2.20
2017-07-09T06:28:23.226Z,1.90
2017-07-09T06:30:50.298Z,2.43
2017-07-09T06:33:16.605Z,2.10
2017-07-09T06:35:42.923Z,1.80
2017-07-09T06:38:09.227Z,2.20
2017-07-09T06:40:35.534Z,1.90
2017-07-09T06:43:01.869Z,2.03
2017-07-09T06:45:28.152Z,1.90
2017-07-09T06:47:55.217Z,1.73
2017-07-09T06:50:22.283Z,2.03
2017-07-09T06:52:48.599Z,2.53
2017-07-09T06:55:15.647Z,1.77
2017-07-09T06:57:41.982Z,1.60
2017-07-09T07:00:08.320Z,2.23
2017-07-09T07:02:34.649Z,1.87
2017-07-09T07:05:00.947Z,1.70
2017-07-09T07:07:27.249Z,1.90
2017-07-09T07:09:53.554Z,1.80
2017-07-09T07:12:19.874Z,2.13
2017-07-09T07:14:46.163Z,1.90
2017-07-09T07:17:12.471Z,2.60
2017-07-09T07:19:38.746Z,2.00
2017-07-09T07:22:05.073Z,1.53
2017-07-09T07:24:32.115Z,1.60
2017-07-09T07:26:58.426Z,2.00
2017-07-09T07:29:25.491Z,2.20
2017-07-09T07:31:51.794Z,1.90
2017-07-09T07:34:18.095Z,1.70
2017-07-09T07:36:44.396Z,2.10
2017-07-09T07:39:10.699Z,2.10
2017-07-09T07:41:36.982Z,1.90
2017-07-09T07:44:03.278Z,1.70
2017-07-09T07:46:29.569Z,1.80
2017-07-09T07:48:55.894Z,2.10
2017-07-09T07:51:22.190Z,1.97
2017-07-09T07:53:48.497Z,1.90
2017-07-09T07:56:15.550Z,2.00
2017-07-09T07:58:41.892Z,2.43
2017-07-09T08:01:08.205Z,2.13
2017-07-09T08:03:35.310Z,1.87
2017-07-09T08:06:01.639Z,2.00
2017-07-09T08:08:27.924Z,2.37
2017-07-09T08:10:54.252Z,1.80
2017-07-09T08:13:21.279Z,2.07
2017-07-09T08:15:47.596Z,1.97
2017-07-09T08:18:13.880Z,1.70
2017-07-09T08:20:40.240Z,2.03
2017-07-09T08:23:06.545Z,2.20
2017-07-09T08:25:32.865Z,2.17
2017-07-09T08:27:59.158Z,2.20
2017-07-09T08:30:26.209Z,2.20
2017-07-09T08:32:52.542Z,2.03
2017-07-09T08:35:19.615Z,2.43
2017-07-09T08:37:45.892Z,1.87
2017-07-09T08:40:12.176Z,2.30
2017-07-09T08:42:38.489Z,2.17
2017-07-09T08:45:04.791Z,2.73
2017-07-09T08:47:31.117Z,2.03
2017-07-09T08:49:57.401Z,2.57
2017-07-09T08:52:23.747Z,1.70
2017-07-09T08:54:50.057Z,1.90
2017-07-09T08:57:16.391Z,2.40
2017-07-09T08:59:42.674Z,2.30
2017-07-09T09:02:09.737Z,2.33
2017-07-09T09:04:36.049Z,1.97
2017-07-09T09:07:02.372Z,2.03
2017-07-09T09:09:28.655Z,1.70
2017-07-09T09:11:54.994Z,1.70
2017-07-09T09:14:21.283Z,2.00
2017-07-09T09:16:48.322Z,1.90
2017-07-09T09:19:15.369Z,1.70
2017-07-09T09:21:42.476Z,2.30
2017-07-09T09:24:08.786Z,1.80
2017-07-09T09:26:35.053Z,1.80
2017-07-09T09:29:01.401Z,2.10
2017-07-09T09:31:28.461Z,2.07
2017-07-09T09:33:55.508Z,1.80
2017-07-09T09:36:21.839Z,1.90
2017-07-09T09:38:48.886Z,2.60
2017-07-09T09:41:15.928Z,1.87
2017-07-09T09:43:42.971Z,1.77
2017-07-09T09:46:10.003Z,2.10
2017-07-09T09:48:36.337Z,2.17
2017-07-09T09:51:03.392Z,1.67
2017-07-09T09:53:29.670Z,1.57
2017-07-09T09:55:55.980Z,1.57
2017-07-09T09:58:22.303Z,1.70
2017-07-09T10:00:48.617Z,1.53
2017-07-09T10:03:15.645Z,2.20
2017-07-09T10:05:41.957Z,2.43
2017-07-09T10:08:08.277Z,2.33
2017-07-09T10:10:34.607Z,2.63
2017-07-09T10:13:00.887Z,2.40
2017-07-09T10:15:27.958Z,2.17
2017-07-09T10:17:54.638Z,2.00
2017-07-09T10:20:20.959Z,2.40
2017-07-09T10:22:47.255Z,2.47
2017-07-09T10:25:13.600Z,3.07
2017-07-09T10:27:39.907Z,1.90
2017-07-09T10:30:06.930Z,2.43
2017-07-09T10:32:33.979Z,2.20
2017-07-09T10:35:00.262Z,2.10
2017-07-09T10:37:26.589Z,1.60
2017-07-09T10:39:52.895Z,1.90
2017-07-09T10:42:19.202Z,1.70
2017-07-09T10:44:46.238Z,1.47
2017-07-09T10:47:12.547Z,1.63
2017-07-09T10:49:38.847Z,2.17
2017-07-09T10:52:05.150Z,1.77
2017-07-09T10:54:31.441Z,1.73
2017-07-09T10:56:57.764Z,1.47
2017-07-09T10:59:24.097Z,1.93
2017-07-09T11:01:50.427Z,1.90
2017-07-09T11:04:16.750Z,2.00
2017-07-09T11:06:43.060Z,2.33
2017-07-09T11:09:09.397Z,1.83
2017-07-09T11:11:35.673Z,1.50
2017-07-09T11:14:02.706Z,1.50
2017-07-09T11:16:29.016Z,2.20
2017-07-09T11:18:55.281Z,1.57
2017-07-09T11:21:21.634Z,1.70
2017-07-09T11:23:47.960Z,1.60
2017-07-09T11:26:14.287Z,1.60
2017-07-09T11:28:40.603Z,1.40
2017-07-09T11:31:07.658Z,1.53
2017-07-09T11:33:34.718Z,1.30
2017-07-09T11:36:01.040Z,2.10
2017-07-09T11:38:27.338Z,1.37
2017-07-09T11:40:53.643Z,1.63
2017-07-09T11:43:19.948Z,1.20
2017-07-09T11:45:46.267Z,1.40
2017-07-09T11:48:12.582Z,1.57
2017-07-09T11:50:38.893Z,1.70
2017-07-09T11:53:06.069Z,1.37
2017-07-09T11:55:33.106Z,1.30
2017-07-09T11:58:00.982Z,2.10
2017-07-09T12:00:28.046Z,1.20
2017-07-09T12:02:54.358Z,1.90
2017-07-09T12:05:21.407Z,1.17
2017-07-09T12:07:48.457Z,1.47
2017-07-09T12:10:14.775Z,1.60
2017-07-09T12:12:41.834Z,1.13
2017-07-09T12:15:08.884Z,1.20
2017-07-09T12:17:35.911Z,1.37
2017-07-09T12:20:02.973Z,2.50
2017-07-09T12:22:29.273Z,1.43
2017-07-09T12:24:55.718Z,1.23
2017-07-09T12:27:22.039Z,1.50
2017-07-09T12:29:49.141Z,1.10
2017-07-09T12:32:15.435Z,1.40
2017-07-09T12:34:41.755Z,1.27
2017-07-09T12:37:08.062Z,1.00
2017-07-09T12:39:34.386Z,1.23
2017-07-09T12:42:00.697Z,1.07
2017-07-09T12:44:27.062Z,1.00
2017-07-09T12:46:53.440Z,1.20
2017-07-09T12:49:19.740Z,1.03
2017-07-09T12:51:46.783Z,1.10
2017-07-09T12:54:13.070Z,1.30
2017-07-09T12:56:39.361Z,1.10
2017-07-09T12:59:06.390Z,1.20
2017-07-09T13:01:39.698Z,1.27
2017-07-09T13:04:12.860Z,2.10
2017-07-09T13:06:39.153Z,1.30
2017-07-09T13:09:05.473Z,1.40
2017-07-09T13:11:31.790Z,1.20
2017-07-09T13:13:58.074Z,1.40
2017-07-09T13:16:24.382Z,1.50
2017-07-09T13:18:50.670Z,1.43
2017-07-09T13:21:16.974Z,1.40
2017-07-09T13:23:43.303Z,1.73
2017-07-09T13:26:09.602Z,1.10
2017-07-09T13:28:35.914Z,1.53
2017-07-09T13:31:02.235Z,1.30
2017-07-09T13:33:28.530Z,1.13
2017-07-09T13:35:54.807Z,1.30
2017-07-09T13:38:21.111Z,1.40
2017-07-09T13:40:47.407Z,1.40
2017-07-09T13:43:13.967Z,1.30
2017-07-09T13:45:41.029Z,1.30
2017-07-09T13:48:07.330Z,1.30
2017-07-09T13:50:33.623Z,1.60
2017-07-09T13:52:59.945Z,1.80
2017-07-09T13:55:26.246Z,1.80
2017-07-09T13:57:52.531Z,1.60
2017-07-09T14:00:18.843Z,1.57
2017-07-09T14:02:45.137Z,1.33
2017-07-09T14:05:11.458Z,1.20
2017-07-09T14:07:37.738Z,0.90
2017-07-09T14:10:10.881Z,1.60
2017-07-09T14:12:37.929Z,1.07
2017-07-09T14:15:04.270Z,1.30
2017-07-09T14:17:30.554Z,1.50
2017-07-09T14:19:56.861Z,1.37
2017-07-09T14:22:23.149Z,1.20
2017-07-09T14:24:50.163Z,1.17
2017-07-09T14:27:16.443Z,1.20
2017-07-09T14:29:42.738Z,1.13
2017-07-09T14:32:09.046Z,1.40
2017-07-09T14:34:42.450Z,1.40
2017-07-09T14:37:23.742Z,1.37
2017-07-09T14:39:50.034Z,0.83
2017-07-09T14:42:16.341Z,1.20
2017-07-09T14:44:42.647Z,1.20
2017-07-09T14:47:08.953Z,1.00
2017-07-09T14:49:35.279Z,1.13
2017-07-09T14:52:01.579Z,1.40
2017-07-09T14:54:27.871Z,1.27
2017-07-09T14:56:54.207Z,1.53
2017-07-09T14:59:20.508Z,1.47
2017-07-09T15:01:47.548Z,1.00
2017-07-09T15:04:14.606Z,1.40
2017-07-09T15:06:41.625Z,1.13
2017-07-09T15:09:08.754Z,1.10
2017-07-09T15:11:35.043Z,1.07
2017-07-09T15:14:02.070Z,1.13
2017-07-09T15:16:29.118Z,0.87
2017-07-09T15:18:56.180Z,1.47
2017-07-09T15:21:23.210Z,0.93
2017-07-09T15:23:50.263Z,1.20
2017-07-09T15:26:17.302Z,1.60
2017-07-09T15:28:44.340Z,1.00
2017-07-09T15:31:10.651Z,0.90
2017-07-09T15:33:36.945Z,1.00
2017-07-09T15:36:03.266Z,0.90
2017-07-09T15:38:29.554Z,0.80
2017-07-09T15:40:55.854Z,1.80
2017-07-09T15:43:22.128Z,1.50
2017-07-09T15:45:48.711Z,1.00
2017-07-09T15:48:14.979Z,1.20
2017-07-09T15:50:41.270Z,1.47
2017-07-09T15:53:07.569Z,1.20
2017-07-09T15:55:33.890Z,0.97
2017-07-09T15:58:00.932Z,1.07
2017-07-09T16:00:27.995Z,1.30
2017-07-09T16:02:54.334Z,1.13
2017-07-09T16:05:20.636Z,1.07
2017-07-09T16:07:47.682Z,1.97
2017-07-09T16:10:13.995Z,1.40
2017-07-09T16:12:40.295Z,1.07
2017-07-09T16:15:06.575Z,1.20
2017-07-09T16:17:33.639Z,1.10
2017-07-09T16:20:00.695Z,1.20
2017-07-09T16:22:26.998Z,1.33
2017-07-09T16:24:54.039Z,1.40
2017-07-09T16:27:21.093Z,1.20
2017-07-09T16:29:48.148Z,1.90
2017-07-09T16:32:15.183Z,1.10
2017-07-09T16:34:41.488Z,1.33
2017-07-09T16:37:07.765Z,1.37
2017-07-09T16:39:34.918Z,1.30
2017-07-09T16:42:01.200Z,1.43
2017-07-09T16:44:27.582Z,1.30
2017-07-09T16:46:53.876Z,1.40
2017-07-09T16:49:20.157Z,1.80
2017-07-09T16:51:46.458Z,1.80
2017-07-09T16:54:12.758Z,1.50
2017-07-09T16:56:39.159Z,1.20
2017-07-09T16:59:05.544Z,1.37
2017-07-09T17:01:32.658Z,2.13
2017-07-09T17:03:58.964Z,1.67
2017-07-09T17:06:25.283Z,1.13
2017-07-09T17:08:51.576Z,1.13
2017-07-09T17:11:17.905Z,1.00
2017-07-09T17:13:44.957Z,1.40
2017-07-09T17:16:11.989Z,1.80
2017-07-09T17:18:38.283Z,1.37
2017-07-09T17:21:04.594Z,0.97
2017-07-09T17:23:30.885Z,1.30
2017-07-09T17:25:57.167Z,2.13
2017-07-09T17:28:23.489Z,1.53
2017-07-09T17:30:49.785Z,1.20
2017-07-09T17:33:16.822Z,1.40
2017-07-09T17:35:43.123Z,1.00
2017-07-09T17:38:09.440Z,1.30
2017-07-09T17:40:35.719Z,1.33
2017-07-09T17:43:02.768Z,3.90
2017-07-09T17:45:29.067Z,1.90
2017-07-09T17:47:55.391Z,2.57
2017-07-09T17:50:21.695Z,1.50
2017-07-09T17:52:48.015Z,2.00
2017-07-09T17:55:14.328Z,1.50
2017-07-09T17:57:48.651Z,1.23
2017-07-09T18:00:14.941Z,1.17
2017-07-09T18:02:41.270Z,1.20
2017-07-09T18:05:07.586Z,1.30
2017-07-09T18:07:33.923Z,1.20
2017-07-09T18:10:00.229Z,1.20
2017-07-09T18:12:26.524Z,1.43
2017-07-09T18:14:53.623Z,1.20
2017-07-09T18:17:19.932Z,1.00
2017-07-09T18:19:46.343Z,1.30
2017-07-09T18:22:12.778Z,1.60
2017-07-09T18:24:39.514Z,1.03
2017-07-09T18:27:05.819Z,1.37
2017-07-09T18:29:32.926Z,1.00
2017-07-09T18:31:59.253Z,1.10
2017-07-09T18:34:25.531Z,1.50
2017-07-09T18:36:52.572Z,1.30
2017-07-09T18:39:18.867Z,1.43
2017-07-09T18:41:45.151Z,1.00
2017-07-09T18:44:11.437Z,1.03
2017-07-09T18:46:37.764Z,1.40
2017-07-09T18:49:04.063Z,1.60
2017-07-09T18:51:30.353Z,1.83
2017-07-09T18:53:56.667Z,1.30
2017-07-09T18:56:22.979Z,1.57
2017-07-09T18:58:49.244Z,1.53
2017-07-09T19:01:16.286Z,1.60
2017-07-09T19:03:42.593Z,1.53
2017-07-09T19:06:08.879Z,1.70
2017-07-09T19:08:35.174Z,2.00
2017-07-09T19:11:01.472Z,1.60
2017-07-09T19:13:27.777Z,1.73
2017-07-09T19:15:54.066Z,1.67
2017-07-09T19:18:21.143Z,1.60
2017-07-09T19:20:47.447Z,1.60
2017-07-09T19:23:13.777Z,1.70
2017-07-09T19:25:40.084Z,1.40
2017-07-09T19:28:06.388Z,1.70
2017-07-09T19:30:32.670Z,1.40
2017-07-09T19:32:59.702Z,1.60
2017-07-09T19:35:25.994Z,1.50
2017-07-09T19:37:52.312Z,2.47
2017-07-09T19:40:18.598Z,1.40
2017-07-09T19:42:44.875Z,1.43
2017-07-09T19:45:11.167Z,2.10
2017-07-09T19:47:37.446Z,2.10
2017-07-09T19:50:03.727Z,1.57
2017-07-09T19:52:29.994Z,1.50
2017-07-09T19:54:56.329Z,1.80
2017-07-09T19:57:22.621Z,2.10
2017-07-09T19:59:48.935Z,1.93
2017-07-09T20:02:15.308Z,1.73
2017-07-09T20:04:41.594Z,1.70
2017-07-09T20:07:07.894Z,2.10
2017-07-09T20:09:34.163Z,1.90
2017-07-09T20:12:01.447Z,1.70
2017-07-09T20:14:27.714Z,1.93
2017-07-09T20:16:54.012Z,2.00
2017-07-09T20:19:20.303Z,1.77
2017-07-09T20:21:46.632Z,2.33
2017-07-09T20:24:13.574Z,1.60
2017-07-09T20:26:39.829Z,1.97
2017-07-09T20:29:06.110Z,1.57
2017-07-09T20:31:32.379Z,2.17
2017-07-09T20:33:58.659Z,2.07
2017-07-09T20:36:24.935Z,1.87
2017-07-09T20:38:51.979Z,2.20
2017-07-09T20:41:18.253Z,1.87
2017-07-09T20:43:44.551Z,2.27
2017-07-09T20:46:10.820Z,1.50
2017-07-09T20:48:37.109Z,1.80
2017-07-09T20:51:03.381Z,2.10
2017-07-09T20:53:29.679Z,2.00
2017-07-09T20:55:55.938Z,1.93
2017-07-09T20:58:22.215Z,2.13
2017-07-09T21:00:48.500Z,1.90
2017-07-09T21:03:14.839Z,1.97
2017-07-09T21:05:41.128Z,1.77
2017-07-09T21:08:07.397Z,1.80
2017-07-09T21:10:33.690Z,2.00
2017-07-09T21:12:59.954Z,2.00
2017-07-09T21:15:26.239Z,2.10
2017-07-09T21:17:52.519Z,1.80
2017-07-09T21:20:18.816Z,2.13
2017-07-09T21:22:45.081Z,2.13
2017-07-09T21:25:11.373Z,2.00
2017-07-09T21:27:37.671Z,1.83
2017-07-09T21:30:04.045Z,2.00
2017-07-09T21:32:30.335Z,2.03
2017-07-09T21:34:56.601Z,1.90
2017-07-09T21:37:22.891Z,1.87
2017-07-09T21:39:49.176Z,1.90
2017-07-09T21:42:15.494Z,1.90
2017-07-09T21:44:41.754Z,1.73
2017-07-09T21:47:08.058Z,1.70
2017-07-09T21:49:34.336Z,2.23
2017-07-09T21:52:00.611Z,2.10
2017-07-09T21:54:26.873Z,2.20
2017-07-09T21:56:53.155Z,1.67
2017-07-09T21:59:19.455Z,2.20
2017-07-09T22:01:45.739Z,2.10
2017-07-09T22:04:12.031Z,1.97
2017-07-09T22:06:38.346Z,2.00
2017-07-09T22:09:04.647Z,2.10
2017-07-09T22:11:31.666Z,1.90
2017-07-09T22:13:57.955Z,2.30
2017-07-09T22:16:24.427Z,1.93
2017-07-09T22:18:50.771Z,2.43
2017-07-09T22:21:17.813Z,2.10
2017-07-09T22:23:44.856Z,1.90
2017-07-09T22:26:11.157Z,2.50
2017-07-09T22:28:37.435Z,2.00
2017-07-09T22:31:03.708Z,2.03
2017-07-09T22:33:29.994Z,1.80
2017-07-09T22:35:56.275Z,2.00
2017-07-09T22:38:22.558Z,1.90
2017-07-09T22:40:48.856Z,2.03
2017-07-09T22:43:15.134Z,2.50
2017-07-09T22:45:41.407Z,2.33
2017-07-09T22:48:07.703Z,2.63
2017-07-09T22:50:33.986Z,2.20
2017-07-09T22:53:00.262Z,2.10
2017-07-09T22:55:26.561Z,2.07
2017-07-09T22:57:52.830Z,1.73
2017-07-09T23:00:19.107Z,1.87
2017-07-09T23:02:45.388Z,1.90
2017-07-09T23:05:11.671Z,2.07
2017-07-09T23:07:38.711Z,2.00
2017-07-09T23:10:05.004Z,2.63
2017-07-09T23:12:31.292Z,1.87
2017-07-09T23:14:58.311Z,2.50
2017-07-09T23:17:24.614Z,2.00
2017-07-09T23:19:50.886Z,1.90
2017-07-09T23:22:17.197Z,2.13
2017-07-09T23:24:43.485Z,2.27
2017-07-09T23:27:09.754Z,2.27
2017-07-09T23:29:36.039Z,1.90
2017-07-09T23:32:02.345Z,2.20
2017-07-09T23:34:28.646Z,1.40
2017-07-09T23:36:54.934Z,1.90
2017-07-09T23:39:21.247Z,2.33
2017-07-09T23:41:47.507Z,1.70
2017-07-09T23:44:13.797Z,2.10
2017-07-09T23:46:40.088Z,2.07
2017-07-09T23:49:06.368Z,2.57
2017-07-09T23:51:32.654Z,2.20
2017-07-09T23:53:58.957Z,2.20
2017-07-09T23:56:25.229Z,1.87
2017-07-09T23:58:52.254Z,2.20
